Time;durP1;ratioP1;P1;durP2;ratioP2;P2;SDS_P1;SDS_P2;PMS_P1;PMS_P2;Temp;Humidity;BMP_temperature;BMP_pressure;BME280_temperature;BME280_humidity;BME280_pressure;Samples;Min_cycle;Max_cycle;Signal;HPM_P1;HPM_P2
2022/01/29 00:00:34;;;;;;;67.57;39.37;;;;;;;;;;5074534;28;20202;-74
2022/01/29 00:03:02;;;;;;;64.70;40.20;;;;;;;;;;5069178;28;20252;-75
2022/01/29 00:05:31;;;;;;;78.40;42.83;;;;;;;;;;5075248;28;20182;-73
2022/01/29 00:08:02;;;;;;;71.73;39.67;;;;;;;;;;5074798;28;20271;-74
2022/01/29 00:10:31;;;;;;;69.77;41.20;;;;;;;;;;5060529;28;20269;-73
2022/01/29 00:13:00;;;;;;;72.83;44.00;;;;;;;;;;5070676;28;20267;-75
2022/01/29 00:15:28;;;;;;;65.23;39.27;;;;;;;;;;5069144;28;20195;-73
2022/01/29 00:17:57;;;;;;;64.47;39.20;;;;;;;;;;5064271;28;20275;-73
2022/01/29 00:20:25;;;;;;;65.43;40.20;;;;;;;;;;5068328;28;20203;-73
2022/01/29 00:22:54;;;;;;;69.03;40.37;;;;;;;;;;5074598;28;20211;-73
2022/01/29 00:25:24;;;;;;;66.23;38.50;;;;;;;;;;5074590;28;20202;-73
2022/01/29 00:27:56;;;;;;;66.67;39.60;;;;;;;;;;5073333;28;20222;-74
2022/01/29 00:30:31;;;;;;;62.80;38.23;;;;;;;;;;5072524;28;20263;-74
2022/01/29 00:32:59;;;;;;;61.57;38.00;;;;;;;;;;5068301;28;20661;-73
2022/01/29 00:35:28;;;;;;;62.70;38.93;;;;;;;;;;5054753;28;20365;-74
2022/01/29 00:37:57;;;;;;;60.23;36.97;;;;;;;;;;5054197;28;20227;-75
2022/01/29 00:40:27;;;;;;;60.00;37.80;;;;;;;;;;5054417;28;20256;-73
2022/01/29 00:42:55;;;;;;;62.43;39.07;;;;;;;;;;5054554;28;20264;-75
2022/01/29 00:45:24;;;;;;;57.77;36.40;;;;;;;;;;5053513;28;20203;-75
2022/01/29 00:47:53;;;;;;;60.07;35.50;;;;;;;;;;5053922;28;20223;-74
2022/01/29 00:50:21;;;;;;;55.90;36.90;;;;;;;;;;5053981;28;20704;-73
2022/01/29 00:52:50;;;;;;;60.33;35.27;;;;;;;;;;5053959;28;20269;-74
2022/01/29 00:55:18;;;;;;;53.67;35.30;;;;;;;;;;5054012;28;20210;-75
2022/01/29 00:57:48;;;;;;;55.40;35.13;;;;;;;;;;5054296;28;20694;-73
2022/01/29 01:00:17;;;;;;;61.43;40.80;;;;;;;;;;5053550;28;20293;-74
2022/01/29 01:02:46;;;;;;;56.30;35.50;;;;;;;;;;5060350;28;20206;-74
2022/01/29 01:05:14;;;;;;;56.37;36.13;;;;;;;;;;5073924;28;20202;-73
2022/01/29 01:07:43;;;;;;;54.03;34.93;;;;;;;;;;5073894;28;20690;-74
2022/01/29 01:10:13;;;;;;;55.80;33.70;;;;;;;;;;5073126;28;20206;-74
2022/01/29 01:12:41;;;;;;;53.67;33.00;;;;;;;;;;5073966;28;20264;-74
2022/01/29 01:15:12;;;;;;;54.93;35.67;;;;;;;;;;5073778;28;20205;-74
2022/01/29 01:17:41;;;;;;;52.47;33.43;;;;;;;;;;5073490;28;20222;-75
2022/01/29 01:20:10;;;;;;;51.23;33.33;;;;;;;;;;5073206;28;20222;-74
2022/01/29 01:22:39;;;;;;;55.03;35.43;;;;;;;;;;5053372;28;20269;-75
2022/01/29 01:25:08;;;;;;;57.33;35.93;;;;;;;;;;5053202;28;20662;-73
2022/01/29 01:27:37;;;;;;;56.47;35.60;;;;;;;;;;5053953;28;20231;-75
2022/01/29 01:30:06;;;;;;;56.97;36.07;;;;;;;;;;5053490;28;20256;-73
2022/01/29 01:32:36;;;;;;;59.57;36.07;;;;;;;;;;5057699;28;20207;-72
2022/01/29 01:35:12;;;;;;;55.93;35.67;;;;;;;;;;5071602;28;20247;-74
2022/01/29 01:37:46;;;;;;;55.07;34.93;;;;;;;;;;5073021;28;20697;-73
2022/01/29 01:40:16;;;;;;;56.13;35.60;;;;;;;;;;5062642;28;20222;-75
2022/01/29 01:42:44;;;;;;;62.10;36.27;;;;;;;;;;5053313;28;20195;-73
2022/01/29 01:45:13;;;;;;;59.60;37.13;;;;;;;;;;5052965;28;20662;-74
2022/01/29 01:47:43;;;;;;;58.50;36.60;;;;;;;;;;5052995;28;20744;-74
2022/01/29 01:50:12;;;;;;;59.60;35.20;;;;;;;;;;5052167;28;20716;-74
2022/01/29 01:52:40;;;;;;;51.90;35.30;;;;;;;;;;5052876;28;20249;-75
2022/01/29 01:55:09;;;;;;;54.50;35.10;;;;;;;;;;5052478;28;20211;-73
2022/01/29 01:57:37;;;;;;;55.90;36.30;;;;;;;;;;5053083;28;20269;-72
2022/01/29 02:00:06;;;;;;;57.30;35.33;;;;;;;;;;5052662;28;20268;-72
2022/01/29 02:02:35;;;;;;;55.97;36.40;;;;;;;;;;5057269;28;20203;-73
2022/01/29 02:05:05;;;;;;;56.00;35.57;;;;;;;;;;5072840;28;20206;-73
2022/01/29 02:07:34;;;;;;;61.57;35.63;;;;;;;;;;5072779;28;20705;-73
2022/01/29 02:10:03;;;;;;;59.70;36.73;;;;;;;;;;5055552;28;20324;-73
2022/01/29 02:12:34;;;;;;;55.13;35.33;;;;;;;;;;5053044;28;20203;-74
2022/01/29 02:15:05;;;;;;;60.50;37.87;;;;;;;;;;5052402;28;20730;-72
2022/01/29 02:17:33;;;;;;;61.90;37.13;;;;;;;;;;5053196;28;20231;-75
2022/01/29 02:20:02;;;;;;;56.20;35.23;;;;;;;;;;5053749;28;20220;-74
2022/01/29 02:22:32;;;;;;;59.10;37.60;;;;;;;;;;5052385;28;20729;-74
2022/01/29 02:25:01;;;;;;;58.80;37.27;;;;;;;;;;5067133;28;20192;-76
2022/01/29 02:27:31;;;;;;;58.33;37.80;;;;;;;;;;5052713;28;20231;-76
2022/01/29 02:29:59;;;;;;;61.30;38.67;;;;;;;;;;5053135;28;20249;-74
2022/01/29 02:32:28;;;;;;;59.50;38.40;;;;;;;;;;5056175;28;20592;-77
2022/01/29 02:34:57;;;;;;;62.30;38.63;;;;;;;;;;5072483;28;20281;-76
2022/01/29 02:37:25;;;;;;;62.90;38.40;;;;;;;;;;5066397;28;20259;-77
2022/01/29 02:39:55;;;;;;;62.23;38.40;;;;;;;;;;5052550;28;20765;-74
2022/01/29 02:42:24;;;;;;;58.10;37.17;;;;;;;;;;5065006;28;20199;-77
2022/01/29 02:44:52;;;;;;;59.33;36.73;;;;;;;;;;5071970;28;20194;-78
2022/01/29 02:47:29;;;;;;;57.90;36.07;;;;;;;;;;5072677;28;20226;-76
2022/01/29 02:49:58;;;;;;;61.43;36.83;;;;;;;;;;5072664;28;20683;-76
2022/01/29 02:52:29;;;;;;;61.47;36.30;;;;;;;;;;5071969;28;20622;-78
2022/01/29 02:55:00;;;;;;;55.93;37.03;;;;;;;;;;5071415;28;20202;-77
2022/01/29 02:57:29;;;;;;;57.73;36.90;;;;;;;;;;5072727;28;20760;-76
2022/01/29 03:00:00;;;;;;;59.57;37.20;;;;;;;;;;5072496;28;20647;-76
2022/01/29 03:02:29;;;;;;;58.63;37.83;;;;;;;;;;5066403;28;20214;-77
2022/01/29 03:04:57;;;;;;;57.43;37.03;;;;;;;;;;5071477;28;20204;-76
2022/01/29 03:07:27;;;;;;;61.93;37.63;;;;;;;;;;5053726;28;20219;-75
2022/01/29 03:09:56;;;;;;;56.03;35.43;;;;;;;;;;5054503;28;20233;-78
2022/01/29 03:12:26;;;;;;;52.23;35.90;;;;;;;;;;5056349;28;20206;-73
2022/01/29 03:14:57;;;;;;;59.20;36.80;;;;;;;;;;5070018;28;20191;-76
2022/01/29 03:17:27;;;;;;;55.03;35.17;;;;;;;;;;4734767;28;9999795;-75
2022/01/29 03:19:56;;;;;;;56.57;36.30;;;;;;;;;;5093934;28;20279;-77
2022/01/29 03:22:24;;;;;;;56.87;36.77;;;;;;;;;;5094763;28;20228;-77
2022/01/29 03:24:53;;;;;;;53.87;35.43;;;;;;;;;;5069705;28;20199;-77
2022/01/29 03:27:21;;;;;;;53.37;35.13;;;;;;;;;;5056161;28;20219;-75
2022/01/29 03:29:51;;;;;;;52.40;33.87;;;;;;;;;;5056188;28;20211;-77
2022/01/29 03:32:19;;;;;;;51.17;32.90;;;;;;;;;;5058385;28;20622;-77
2022/01/29 03:34:48;;;;;;;53.47;33.57;;;;;;;;;;5071821;28;20183;-78
2022/01/29 03:37:16;;;;;;;49.87;32.70;;;;;;;;;;5075651;28;20222;-77
2022/01/29 03:39:46;;;;;;;50.53;33.77;;;;;;;;;;5075803;28;20232;-77
2022/01/29 03:42:15;;;;;;;52.47;33.10;;;;;;;;;;5075955;28;20186;-75
2022/01/29 03:44:44;;;;;;;51.07;32.13;;;;;;;;;;5069167;28;20689;-76
2022/01/29 03:47:14;;;;;;;48.37;31.93;;;;;;;;;;5055589;28;20219;-78
2022/01/29 03:49:43;;;;;;;54.40;33.73;;;;;;;;;;5072388;28;20199;-77
2022/01/29 03:52:11;;;;;;;47.53;31.50;;;;;;;;;;5073576;28;20240;-78
2022/01/29 03:54:40;;;;;;;49.83;32.37;;;;;;;;;;5072864;28;20226;-75
2022/01/29 03:57:08;;;;;;;52.07;33.13;;;;;;;;;;5074875;28;20601;-77
2022/01/29 03:59:37;;;;;;;49.87;31.97;;;;;;;;;;5074838;28;20593;-74
2022/01/29 04:02:05;;;;;;;48.57;31.97;;;;;;;;;;5062351;28;20231;-77
2022/01/29 04:04:35;;;;;;;51.00;31.40;;;;;;;;;;5067220;28;20198;-77
2022/01/29 04:07:10;;;;;;;45.37;30.03;;;;;;;;;;5074800;28;20206;-74
2022/01/29 04:09:39;;;;;;;49.23;30.87;;;;;;;;;;5074397;28;20198;-76
2022/01/29 04:12:09;;;;;;;44.40;29.20;;;;;;;;;;5061712;28;20229;-79
2022/01/29 04:14:39;;;;;;;48.60;30.83;;;;;;;;;;5073831;28;20269;-76
2022/01/29 04:17:08;;;;;;;44.90;29.87;;;;;;;;;;5075115;28;20230;-75
2022/01/29 04:19:37;;;;;;;46.77;30.00;;;;;;;;;;5075887;28;20187;-75
2022/01/29 04:22:07;;;;;;;47.50;31.07;;;;;;;;;;5071216;28;20223;-74
2022/01/29 04:24:35;;;;;;;47.60;29.77;;;;;;;;;;5059529;28;20577;-75
2022/01/29 04:27:14;;;;;;;44.17;29.93;;;;;;;;;;5062085;28;20251;-77
2022/01/29 04:29:54;;;;;;;47.80;30.20;;;;;;;;;;5055126;28;20198;-75
2022/01/29 04:32:31;;;;;;;50.20;30.47;;;;;;;;;;5057538;28;20255;-78
2022/01/29 04:35:09;;;;;;;52.00;31.43;;;;;;;;;;5074262;28;20642;-73
2022/01/29 04:37:42;;;;;;;50.17;31.47;;;;;;;;;;5074264;28;20309;-74
2022/01/29 04:40:12;;;;;;;50.47;31.33;;;;;;;;;;5073213;28;20267;-77
2022/01/29 04:42:40;;;;;;;56.47;32.20;;;;;;;;;;5074581;28;20657;-76
2022/01/29 04:45:09;;;;;;;48.23;30.70;;;;;;;;;;5074149;28;20248;-77
2022/01/29 04:47:37;;;;;;;49.00;30.50;;;;;;;;;;5075501;28;20230;-75
2022/01/29 04:50:08;;;;;;;50.43;31.27;;;;;;;;;;5074325;28;20199;-75
2022/01/29 04:52:36;;;;;;;50.17;30.13;;;;;;;;;;5074493;28;20723;-77
2022/01/29 04:55:05;;;;;;;50.93;29.90;;;;;;;;;;5058779;28;20556;-77
2022/01/29 04:57:36;;;;;;;47.70;29.73;;;;;;;;;;5074504;28;20226;-77
2022/01/29 05:00:07;;;;;;;43.40;28.33;;;;;;;;;;5073999;28;20202;-74
2022/01/29 05:02:36;;;;;;;45.10;29.10;;;;;;;;;;5068008;28;20628;-75
2022/01/29 05:05:06;;;;;;;49.97;28.20;;;;;;;;;;5059413;28;20195;-77
2022/01/29 05:07:36;;;;;;;44.20;27.10;;;;;;;;;;5054190;28;20220;-75
2022/01/29 05:10:05;;;;;;;46.07;28.43;;;;;;;;;;5057465;28;20543;-73
2022/01/29 05:12:43;;;;;;;49.23;27.97;;;;;;;;;;5064649;28;20206;-75
2022/01/29 05:15:18;;;;;;;47.93;26.87;;;;;;;;;;5069611;28;20256;-76
2022/01/29 05:28:53;;;;;;;38.30;24.10;;;;;;;;;;5062685;28;20255;-76
2022/01/29 05:31:22;;;;;;;35.77;23.07;;;;;;;;;;5059565;28;20362;-75
2022/01/29 05:33:51;;;;;;;33.87;22.77;;;;;;;;;;5070004;28;20672;-75
2022/01/29 05:36:19;;;;;;;35.03;22.47;;;;;;;;;;5073507;28;20203;-73
2022/01/29 05:38:49;;;;;;;31.07;21.10;;;;;;;;;;5072933;28;20267;-74
2022/01/29 05:41:18;;;;;;;31.50;21.83;;;;;;;;;;5073164;28;20226;-76
2022/01/29 05:43:47;;;;;;;30.90;22.33;;;;;;;;;;5072701;28;20206;-75
2022/01/29 05:46:16;;;;;;;30.43;21.33;;;;;;;;;;5069421;28;20255;-75
2022/01/29 05:48:45;;;;;;;30.57;21.53;;;;;;;;;;5073207;28;20227;-76
2022/01/29 05:54:21;;;;;;;26.53;20.10;;;;;;;;;;5053388;28;20191;-74
2022/01/29 05:56:50;;;;;;;26.93;20.93;;;;;;;;;;5053428;28;20249;-75
2022/01/29 05:59:18;;;;;;;28.70;22.10;;;;;;;;;;5052933;28;20202;-76
2022/01/29 06:01:47;;;;;;;30.47;22.40;;;;;;;;;;5057189;28;20279;-74
2022/01/29 06:04:16;;;;;;;28.23;20.97;;;;;;;;;;5072645;28;20199;-74
2022/01/29 06:06:45;;;;;;;32.67;21.33;;;;;;;;;;5072853;28;20202;-74
2022/01/29 06:09:13;;;;;;;28.40;21.37;;;;;;;;;;5072615;28;20275;-74
2022/01/29 06:11:43;;;;;;;28.40;20.63;;;;;;;;;;5071955;28;20202;-73
2022/01/29 06:14:12;;;;;;;27.90;20.63;;;;;;;;;;5062615;28;20211;-77
2022/01/29 06:16:40;;;;;;;29.93;21.30;;;;;;;;;;5059069;28;20611;-73
2022/01/29 06:19:09;;;;;;;30.03;21.87;;;;;;;;;;5053579;28;20223;-74
2022/01/29 06:21:37;;;;;;;28.43;20.50;;;;;;;;;;5060049;28;20218;-75
2022/01/29 06:24:06;;;;;;;26.17;19.47;;;;;;;;;;5071773;28;20937;-75
2022/01/29 06:26:38;;;;;;;28.97;20.27;;;;;;;;;;5065081;28;20195;-76
2022/01/29 06:29:08;;;;;;;30.30;21.73;;;;;;;;;;5067613;28;20275;-74
2022/01/29 06:31:36;;;;;;;26.13;19.87;;;;;;;;;;5053591;28;20240;-73
2022/01/29 06:34:06;;;;;;;24.77;19.33;;;;;;;;;;5068906;28;20210;-73
2022/01/29 06:36:35;;;;;;;27.80;20.03;;;;;;;;;;5072200;28;20203;-75
2022/01/29 06:39:03;;;;;;;28.57;20.70;;;;;;;;;;5071986;28;20633;-73
2022/01/29 06:41:32;;;;;;;28.80;21.23;;;;;;;;;;5072728;28;20230;-73
2022/01/29 06:44:01;;;;;;;27.73;20.20;;;;;;;;;;5070790;28;20281;-73
2022/01/29 06:46:31;;;;;;;26.67;19.80;;;;;;;;;;5072554;28;20688;-74
2022/01/29 06:48:59;;;;;;;29.77;20.77;;;;;;;;;;5071745;28;20237;-73
2022/01/29 06:51:28;;;;;;;26.60;19.83;;;;;;;;;;5067099;28;20195;-73
2022/01/29 06:53:56;;;;;;;26.13;19.37;;;;;;;;;;5064812;28;20323;-75
2022/01/29 06:56:27;;;;;;;28.40;20.00;;;;;;;;;;5052270;28;20270;-75
2022/01/29 06:58:55;;;;;;;25.53;19.37;;;;;;;;;;5069876;28;20292;-73
2022/01/29 07:01:41;;;;;;;28.00;20.43;;;;;;;;;;5069318;28;20265;-72
2022/01/29 07:04:10;;;;;;;27.17;18.87;;;;;;;;;;5060905;28;20582;-74
2022/01/29 07:06:38;;;;;;;29.03;20.03;;;;;;;;;;5052334;28;20716;-74
2022/01/29 07:09:08;;;;;;;26.77;19.07;;;;;;;;;;5051689;28;20272;-76
2022/01/29 07:11:36;;;;;;;26.10;19.33;;;;;;;;;;5052230;28;20244;-73
2022/01/29 07:14:05;;;;;;;26.67;18.80;;;;;;;;;;5060002;28;20609;-73
2022/01/29 07:16:34;;;;;;;26.10;18.80;;;;;;;;;;5060053;28;20248;-74
2022/01/29 07:19:05;;;;;;;27.17;19.53;;;;;;;;;;5052506;28;20215;-75
2022/01/29 07:21:33;;;;;;;26.60;18.97;;;;;;;;;;5053590;28;20199;-75
2022/01/29 07:24:02;;;;;;;25.90;19.17;;;;;;;;;;5062748;28;20215;-74
2022/01/29 07:26:31;;;;;;;25.37;19.27;;;;;;;;;;5052280;28;20658;-73
2022/01/29 07:28:59;;;;;;;26.97;19.53;;;;;;;;;;5052942;28;20219;-74
2022/01/29 07:31:28;;;;;;;25.30;18.40;;;;;;;;;;5057062;28;20195;-76
2022/01/29 07:33:56;;;;;;;23.67;18.13;;;;;;;;;;5067676;28;20202;-76
2022/01/29 07:36:26;;;;;;;25.60;18.97;;;;;;;;;;5057925;28;20217;-73
2022/01/29 07:38:55;;;;;;;25.97;18.50;;;;;;;;;;5051546;28;20360;-73
2022/01/29 07:41:23;;;;;;;25.47;18.80;;;;;;;;;;5051837;28;20210;-76
2022/01/29 07:43:52;;;;;;;28.23;19.23;;;;;;;;;;5053222;28;20262;-75
2022/01/29 07:46:21;;;;;;;24.13;18.23;;;;;;;;;;5051805;28;20206;-74
2022/01/29 07:48:52;;;;;;;26.50;19.63;;;;;;;;;;5064885;28;20702;-74
2022/01/29 07:51:20;;;;;;;26.13;18.20;;;;;;;;;;5057259;28;20194;-73
2022/01/29 07:53:50;;;;;;;26.83;19.83;;;;;;;;;;5070688;28;20244;-75
2022/01/29 07:56:20;;;;;;;28.80;19.40;;;;;;;;;;5060218;28;20670;-73
2022/01/29 07:58:49;;;;;;;26.57;19.17;;;;;;;;;;5060854;28;20269;-73
2022/01/29 08:01:17;;;;;;;29.07;19.50;;;;;;;;;;5062000;28;20255;-74
2022/01/29 08:03:48;;;;;;;28.53;20.07;;;;;;;;;;5056562;28;20258;-74
2022/01/29 08:06:17;;;;;;;29.60;20.27;;;;;;;;;;5071013;28;20225;-74
2022/01/29 08:08:46;;;;;;;28.97;19.80;;;;;;;;;;5065629;28;20228;-73
2022/01/29 08:11:17;;;;;;;30.33;20.53;;;;;;;;;;5060156;28;20207;-72
2022/01/29 08:13:46;;;;;;;29.50;20.50;;;;;;;;;;5056447;28;20646;-74
2022/01/29 08:16:15;;;;;;;33.40;21.80;;;;;;;;;;5069143;28;20202;-72
2022/01/29 08:18:45;;;;;;;34.47;21.77;;;;;;;;;;5061693;28;20234;-75
2022/01/29 08:21:14;;;;;;;33.37;21.13;;;;;;;;;;5073951;28;20207;-75
2022/01/29 08:23:42;;;;;;;37.80;22.47;;;;;;;;;;5056302;28;20246;-73
2022/01/29 08:26:11;;;;;;;36.43;21.57;;;;;;;;;;5060737;28;20207;-74
2022/01/29 08:28:41;;;;;;;35.90;22.50;;;;;;;;;;5060763;28;20223;-74
2022/01/29 08:31:10;;;;;;;40.10;24.07;;;;;;;;;;5070027;28;20194;-74
2022/01/29 08:33:39;;;;;;;36.87;22.90;;;;;;;;;;5057500;28;20196;-75
2022/01/29 08:36:08;;;;;;;34.03;21.47;;;;;;;;;;5070461;28;20264;-72
2022/01/29 08:38:37;;;;;;;38.27;22.93;;;;;;;;;;5055714;28;20677;-75
2022/01/29 08:41:09;;;;;;;37.87;22.30;;;;;;;;;;5055955;28;20199;-75
2022/01/29 08:43:37;;;;;;;40.03;22.97;;;;;;;;;;5067982;28;20222;-73
2022/01/29 08:46:07;;;;;;;39.30;22.90;;;;;;;;;;5068542;28;20294;-73
2022/01/29 08:48:36;;;;;;;35.67;22.07;;;;;;;;;;5068093;28;20271;-73
2022/01/29 08:51:04;;;;;;;34.20;21.97;;;;;;;;;;5069786;28;20260;-75
2022/01/29 08:53:34;;;;;;;38.53;22.70;;;;;;;;;;5065195;28;20191;-74
2022/01/29 08:56:03;;;;;;;38.70;23.67;;;;;;;;;;5069944;28;20296;-75
2022/01/29 08:58:32;;;;;;;36.03;22.27;;;;;;;;;;5055479;28;20223;-73
2022/01/29 09:01:00;;;;;;;36.10;21.47;;;;;;;;;;5054452;28;20211;-73
2022/01/29 09:03:30;;;;;;;36.83;21.70;;;;;;;;;;5064745;28;20221;-75
2022/01/29 09:06:00;;;;;;;36.73;23.03;;;;;;;;;;5056680;28;20191;-73
2022/01/29 09:08:29;;;;;;;38.60;22.23;;;;;;;;;;5064239;28;20273;-76
2022/01/29 09:10:58;;;;;;;36.93;22.03;;;;;;;;;;5062692;28;20208;-73
2022/01/29 09:13:26;;;;;;;38.13;21.83;;;;;;;;;;5055197;28;20201;-74
2022/01/29 09:15:56;;;;;;;38.93;22.00;;;;;;;;;;5063960;28;20198;-73
2022/01/29 09:18:25;;;;;;;33.13;20.17;;;;;;;;;;5072345;28;20256;-75
2022/01/29 09:20:54;;;;;;;37.87;22.13;;;;;;;;;;5062576;28;20207;-74
2022/01/29 09:23:23;;;;;;;32.20;20.10;;;;;;;;;;5053840;28;20276;-77
2022/01/29 09:25:52;;;;;;;33.10;21.37;;;;;;;;;;5055858;28;20265;-76
2022/01/29 09:28:21;;;;;;;34.70;20.57;;;;;;;;;;5067847;28;20272;-73
2022/01/29 09:30:50;;;;;;;34.03;19.67;;;;;;;;;;5061010;28;20207;-74
2022/01/29 09:33:18;;;;;;;33.37;20.43;;;;;;;;;;5063615;28;20205;-76
2022/01/29 09:35:47;;;;;;;30.40;19.30;;;;;;;;;;5067480;28;20203;-73
2022/01/29 09:38:17;;;;;;;28.47;18.20;;;;;;;;;;5054846;28;20231;-73
2022/01/29 09:40:46;;;;;;;28.43;17.80;;;;;;;;;;5056206;28;20269;-76
2022/01/29 09:43:16;;;;;;;26.83;16.50;;;;;;;;;;5051751;28;20632;-73
2022/01/29 09:45:45;;;;;;;25.40;16.83;;;;;;;;;;5053292;28;20230;-76
2022/01/29 09:48:15;;;;;;;25.87;16.80;;;;;;;;;;5052607;28;20227;-75
2022/01/29 09:50:44;;;;;;;24.73;16.23;;;;;;;;;;5052737;28;20210;-77
2022/01/29 09:53:12;;;;;;;25.80;16.73;;;;;;;;;;5051063;28;20268;-76
2022/01/29 09:55:43;;;;;;;25.33;15.40;;;;;;;;;;5058041;28;20614;-75
2022/01/29 09:58:12;;;;;;;23.93;15.60;;;;;;;;;;5065003;28;20223;-72
2022/01/29 10:00:42;;;;;;;22.77;15.70;;;;;;;;;;5072281;28;20264;-74
2022/01/29 10:03:15;;;;;;;20.97;14.73;;;;;;;;;;5065642;28;20206;-75
2022/01/29 10:05:44;;;;;;;23.50;15.87;;;;;;;;;;5073106;28;20278;-75
2022/01/29 10:08:13;;;;;;;22.90;14.90;;;;;;;;;;5072439;28;20626;-75
2022/01/29 10:10:45;;;;;;;23.27;14.97;;;;;;;;;;5073148;28;20199;-75
2022/01/29 10:13:23;;;;;;;22.40;14.70;;;;;;;;;;5071656;28;20202;-72
2022/01/29 10:15:52;;;;;;;22.37;14.80;;;;;;;;;;5066241;28;20198;-76
2022/01/29 10:18:24;;;;;;;20.67;14.53;;;;;;;;;;5052893;28;20253;-75
2022/01/29 10:20:52;;;;;;;21.13;14.80;;;;;;;;;;5055089;28;20544;-74
2022/01/29 10:23:29;;;;;;;22.47;14.23;;;;;;;;;;5061216;28;20211;-72
2022/01/29 10:26:00;;;;;;;20.80;13.87;;;;;;;;;;5065006;28;20202;-73
2022/01/29 10:28:29;;;;;;;23.93;15.40;;;;;;;;;;5066438;28;20248;-73
2022/01/29 10:30:59;;;;;;;20.30;13.23;;;;;;;;;;5053044;28;20203;-74
2022/01/29 10:33:30;;;;;;;22.03;13.77;;;;;;;;;;5052737;28;20203;-74
2022/01/29 10:35:59;;;;;;;21.03;13.40;;;;;;;;;;5052036;28;20614;-74
2022/01/29 10:38:28;;;;;;;21.00;13.70;;;;;;;;;;5056959;28;20218;-73
2022/01/29 10:41:28;;;;;;;19.33;14.03;;;;;;;;;;5058312;28;20207;-75
2022/01/29 10:44:10;;;;;;;17.97;12.90;;;;;;;;;;4997141;28;20212;-74
2022/01/29 10:46:39;;;;;;;16.03;11.87;;;;;;;;;;5049891;28;20285;-73
2022/01/29 10:49:08;;;;;;;17.60;12.40;;;;;;;;;;5057176;28;20241;-74
2022/01/29 10:51:37;;;;;;;17.63;12.30;;;;;;;;;;5056649;28;20199;-75
2022/01/29 10:54:17;;;;;;;17.63;11.70;;;;;;;;;;5065482;28;20203;-76
2022/01/29 10:56:52;;;;;;;15.07;11.23;;;;;;;;;;5066389;28;20210;-75
2022/01/29 10:59:24;;;;;;;15.47;10.30;;;;;;;;;;5052625;28;20206;-72
2022/01/29 11:01:53;;;;;;;14.10;10.27;;;;;;;;;;5054166;28;20206;-76
2022/01/29 11:04:22;;;;;;;12.23;9.70;;;;;;;;;;5058231;28;20269;-72
2022/01/29 11:06:52;;;;;;;13.07;9.63;;;;;;;;;;5053311;28;20614;-73
2022/01/29 11:09:22;;;;;;;12.73;9.37;;;;;;;;;;5064657;28;20198;-77
2022/01/29 11:11:52;;;;;;;12.53;9.57;;;;;;;;;;5072113;28;20198;-75
2022/01/29 11:14:21;;;;;;;11.47;9.20;;;;;;;;;;5064893;28;20203;-75
2022/01/29 11:16:53;;;;;;;12.10;9.20;;;;;;;;;;5061536;28;20608;-73
2022/01/29 11:19:22;;;;;;;10.40;8.57;;;;;;;;;;5065933;28;20195;-73
2022/01/29 11:21:53;;;;;;;11.53;9.47;;;;;;;;;;5060757;28;20275;-75
2022/01/29 11:24:23;;;;;;;12.13;9.67;;;;;;;;;;5060791;28;20226;-76
2022/01/29 11:26:52;;;;;;;11.40;9.13;;;;;;;;;;5072218;28;20191;-74
2022/01/29 11:29:25;;;;;;;11.63;9.10;;;;;;;;;;5071296;28;20311;-74
2022/01/29 11:32:08;;;;;;;14.10;10.73;;;;;;;;;;5070489;28;20690;-75
2022/01/29 11:35:00;;;;;;;13.07;9.93;;;;;;;;;;5054737;28;20408;-74
2022/01/29 11:37:37;;;;;;;12.57;9.57;;;;;;;;;;5058389;28;20223;-74
2022/01/29 11:40:13;;;;;;;12.30;9.93;;;;;;;;;;5053843;28;20203;-73
2022/01/29 11:42:53;;;;;;;11.80;9.60;;;;;;;;;;5063558;28;20241;-74
2022/01/29 11:45:41;;;;;;;12.37;9.57;;;;;;;;;;5058319;28;20273;-76
2022/01/29 11:48:31;;;;;;;11.43;8.70;;;;;;;;;;5066837;28;20226;-73
2022/01/29 11:51:02;;;;;;;9.70;8.03;;;;;;;;;;5059025;28;20211;-72
2022/01/29 11:53:57;;;;;;;13.33;9.30;;;;;;;;;;5061431;28;20198;-73
2022/01/29 11:56:30;;;;;;;12.40;9.47;;;;;;;;;;5055434;28;20659;-72
2022/01/29 11:59:13;;;;;;;11.67;9.30;;;;;;;;;;5062543;28;20626;-76
2022/01/29 12:01:42;;;;;;;10.67;9.07;;;;;;;;;;5058414;28;20199;-74
2022/01/29 12:04:10;;;;;;;10.90;8.53;;;;;;;;;;5067795;28;20290;-74
2022/01/29 12:07:11;;;;;;;9.23;8.03;;;;;;;;;;5065433;28;20250;-76
2022/01/29 12:09:44;;;;;;;10.43;8.30;;;;;;;;;;5072704;28;20199;-74
2022/01/29 12:12:16;;;;;;;10.03;8.30;;;;;;;;;;5065801;28;20194;-73
2022/01/29 12:14:45;;;;;;;10.83;8.03;;;;;;;;;;5074571;28;20570;-75
2022/01/29 12:17:14;;;;;;;10.13;7.90;;;;;;;;;;5070827;28;20211;-74
2022/01/29 12:19:43;;;;;;;9.50;7.60;;;;;;;;;;5075168;28;20225;-74
2022/01/29 12:22:14;;;;;;;9.43;7.93;;;;;;;;;;5059739;28;20195;-75
2022/01/29 12:24:43;;;;;;;9.67;7.97;;;;;;;;;;5062717;28;20214;-74
2022/01/29 12:27:12;;;;;;;9.17;7.60;;;;;;;;;;5072539;28;20558;-75
2022/01/29 12:29:41;;;;;;;10.60;8.43;;;;;;;;;;5059266;28;20199;-77
2022/01/29 12:32:10;;;;;;;9.20;7.53;;;;;;;;;;5067132;28;20206;-74
2022/01/29 12:34:53;;;;;;;8.77;7.87;;;;;;;;;;5069699;28;20212;-77
2022/01/29 12:37:23;;;;;;;9.73;8.47;;;;;;;;;;5073869;28;20237;-76
2022/01/29 12:40:05;;;;;;;9.40;8.03;;;;;;;;;;5067204;28;20206;-74
2022/01/29 12:42:43;;;;;;;11.20;9.33;;;;;;;;;;4714140;28;10000136;-77
2022/01/29 12:45:12;;;;;;;11.40;9.03;;;;;;;;;;5069043;28;20223;-75
2022/01/29 12:47:41;;;;;;;12.33;9.87;;;;;;;;;;5068584;28;20227;-76
2022/01/29 12:50:10;;;;;;;10.23;9.10;;;;;;;;;;5055522;28;20209;-75
2022/01/29 12:52:40;;;;;;;10.53;9.43;;;;;;;;;;5061853;28;20206;-74
2022/01/29 12:55:09;;;;;;;10.97;9.50;;;;;;;;;;5054196;28;20192;-77
2022/01/29 12:57:47;;;;;;;10.60;9.17;;;;;;;;;;5054378;28;20297;-76
2022/01/29 13:00:17;;;;;;;12.43;10.00;;;;;;;;;;5053939;28;20657;-73
2022/01/29 13:02:46;;;;;;;10.00;8.97;;;;;;;;;;5059975;28;20198;-73
2022/01/29 13:05:15;;;;;;;10.63;8.77;;;;;;;;;;5074794;28;20682;-76
2022/01/29 13:07:46;;;;;;;10.40;9.43;;;;;;;;;;5058643;28;20219;-73
2022/01/29 13:10:14;;;;;;;10.50;8.97;;;;;;;;;;5071905;28;20194;-75
2022/01/29 13:12:44;;;;;;;10.07;8.97;;;;;;;;;;5074294;28;20227;-73
2022/01/29 13:15:13;;;;;;;9.60;8.47;;;;;;;;;;5073706;28;20198;-75
2022/01/29 13:17:43;;;;;;;9.73;8.67;;;;;;;;;;5074014;28;20226;-74
2022/01/29 13:20:12;;;;;;;9.90;8.73;;;;;;;;;;5064404;28;20271;-72
2022/01/29 13:22:47;;;;;;;9.53;8.00;;;;;;;;;;5069958;28;20263;-75
2022/01/29 13:25:16;;;;;;;11.20;8.20;;;;;;;;;;5070133;28;20268;-74
2022/01/29 13:27:48;;;;;;;9.97;8.57;;;;;;;;;;5061574;28;20698;-73
2022/01/29 13:30:19;;;;;;;10.03;8.60;;;;;;;;;;5053458;28;20296;-75
2022/01/29 13:32:49;;;;;;;10.47;8.83;;;;;;;;;;5055714;28;20234;-75
2022/01/29 13:35:20;;;;;;;9.80;8.43;;;;;;;;;;5052937;28;20209;-74
2022/01/29 13:37:51;;;;;;;9.53;8.63;;;;;;;;;;5056665;28;20225;-75
2022/01/29 13:40:20;;;;;;;10.30;9.10;;;;;;;;;;5072550;28;20257;-77
2022/01/29 13:42:55;;;;;;;10.33;9.23;;;;;;;;;;5064341;28;20247;-74
2022/01/29 13:45:24;;;;;;;10.07;9.00;;;;;;;;;;5070636;28;20222;-76
2022/01/29 13:48:00;;;;;;;10.23;8.80;;;;;;;;;;5057601;28;20718;-75
2022/01/29 13:50:30;;;;;;;10.23;8.77;;;;;;;;;;5050933;28;20260;-73
2022/01/29 13:53:02;;;;;;;10.80;8.17;;;;;;;;;;5055352;28;20245;-72
2022/01/29 13:55:31;;;;;;;10.40;8.73;;;;;;;;;;5050693;28;20257;-76
2022/01/29 13:58:01;;;;;;;9.73;7.90;;;;;;;;;;5050514;28;20233;-75
2022/01/29 14:00:29;;;;;;;8.57;7.70;;;;;;;;;;5050748;28;20207;-75
2022/01/29 14:02:58;;;;;;;8.93;8.00;;;;;;;;;;5061560;28;20214;-76
2022/01/29 14:05:28;;;;;;;9.53;7.63;;;;;;;;;;5072646;28;20314;-74
2022/01/29 14:08:12;;;;;;;8.77;7.30;;;;;;;;;;5069836;28;20264;-75
2022/01/29 14:10:42;;;;;;;9.63;6.73;;;;;;;;;;5057562;28;20207;-74
2022/01/29 14:13:11;;;;;;;7.63;6.83;;;;;;;;;;5072182;28;20259;-73
2022/01/29 14:15:39;;;;;;;6.77;5.90;;;;;;;;;;5063889;28;20547;-75
2022/01/29 14:18:09;;;;;;;9.30;5.80;;;;;;;;;;5059542;28;20329;-74
2022/01/29 14:20:37;;;;;;;8.77;5.97;;;;;;;;;;5067136;28;20198;-71
2022/01/29 14:23:06;;;;;;;6.33;4.93;;;;;;;;;;5062200;28;20372;-73
2022/01/29 14:25:35;;;;;;;6.63;5.20;;;;;;;;;;5055484;28;20255;-76
2022/01/29 14:28:06;;;;;;;9.80;5.97;;;;;;;;;;5055012;28;20219;-73
2022/01/29 14:30:35;;;;;;;6.10;5.07;;;;;;;;;;5060270;28;20199;-74
2022/01/29 14:33:03;;;;;;;7.27;5.13;;;;;;;;;;5065571;28;20202;-74
2022/01/29 14:35:32;;;;;;;5.53;4.60;;;;;;;;;;5052692;28;20215;-72
2022/01/29 14:38:00;;;;;;;5.57;4.97;;;;;;;;;;5052039;28;20223;-73
2022/01/29 14:40:33;;;;;;;5.90;5.20;;;;;;;;;;5059698;28;20296;-73
2022/01/29 14:43:01;;;;;;;6.67;5.97;;;;;;;;;;5055880;28;20663;-73
2022/01/29 14:45:31;;;;;;;9.47;6.00;;;;;;;;;;5052111;28;20234;-74
2022/01/29 14:48:00;;;;;;;8.37;6.30;;;;;;;;;;5051916;28;20230;-75
2022/01/29 14:50:29;;;;;;;8.90;6.23;;;;;;;;;;5052655;28;20191;-74
2022/01/29 14:52:58;;;;;;;7.10;6.40;;;;;;;;;;5056281;28;20625;-75